Time;durP1;ratioP1;P1;durP2;ratioP2;P2;SDS_P1;SDS_P2;PMS_P1;PMS_P2;Temp;Humidity;BMP_temperature;BMP_pressure;BME280_temperature;BME280_humidity;BME280_pressure;Samples;Min_cycle;Max_cycle;Signal;HPM_P1;HPM_P2
2021/08/23 00:01:55;;;;;;;1.80;1.60;;;17.50;99.90;;;;;;4987694;28;20555;-69
2021/08/23 00:04:21;;;;;;;3.23;1.80;;;17.50;99.90;;;;;;5002539;28;20218;-70
2021/08/23 00:06:46;;;;;;;1.50;1.40;;;17.50;99.90;;;;;;4984555;28;20218;-69
2021/08/23 00:09:12;;;;;;;0.93;0.93;;;17.50;99.90;;;;;;4999975;28;20225;-70
2021/08/23 00:11:38;;;;;;;2.57;1.50;;;17.40;99.90;;;;;;4988089;28;20240;-69
2021/08/23 00:14:03;;;;;;;1.50;1.40;;;17.40;99.90;;;;;;5001279;28;20221;-70
2021/08/23 00:16:29;;;;;;;1.80;1.70;;;17.40;99.90;;;;;;4987779;28;21054;-70
2021/08/23 00:18:55;;;;;;;1.87;1.57;;;17.40;99.90;;;;;;5004001;28;20232;-70
2021/08/23 00:21:24;;;;;;;1.60;1.30;;;17.40;99.90;;;;;;4999756;28;20221;-70
2021/08/23 00:23:54;;;;;;;1.83;1.67;;;17.40;99.90;;;;;;5002173;28;20728;-70
2021/08/23 00:26:21;;;;;;;5.10;1.80;;;17.40;99.90;;;;;;4999108;28;20525;-70
2021/08/23 00:28:47;;;;;;;1.40;1.30;;;17.40;99.90;;;;;;5003800;28;20460;-69
2021/08/23 00:31:13;;;;;;;1.67;1.43;;;17.40;99.90;;;;;;4997532;28;20496;-70
2021/08/23 00:33:38;;;;;;;1.63;1.53;;;17.40;99.90;;;;;;5005107;28;20464;-69
2021/08/23 00:36:04;;;;;;;2.90;1.50;;;17.40;99.90;;;;;;5002016;28;20236;-70
2021/08/23 00:38:30;;;;;;;5.70;1.77;;;17.40;99.90;;;;;;4987003;28;20240;-69
2021/08/23 00:40:55;;;;;;;1.83;1.50;;;17.40;99.90;;;;;;5003959;28;20229;-69
2021/08/23 00:43:21;;;;;;;1.30;1.20;;;17.30;99.90;;;;;;5002131;28;20241;-70
2021/08/23 00:45:47;;;;;;;1.57;1.47;;;17.40;99.90;;;;;;4987628;28;20221;-70
2021/08/23 00:48:12;;;;;;;1.90;1.70;;;17.40;99.90;;;;;;5001692;28;20218;-70
2021/08/23 00:50:38;;;;;;;2.20;2.03;;;17.40;99.90;;;;;;5004002;28;20335;-69
2021/08/23 00:53:04;;;;;;;1.60;1.50;;;17.40;99.90;;;;;;5001626;28;20565;-69
2021/08/23 00:55:33;;;;;;;1.60;1.50;;;17.50;99.90;;;;;;5003251;28;20225;-69
2021/08/23 00:57:59;;;;;;;1.80;1.70;;;17.50;99.90;;;;;;5001851;28;20243;-69
2021/08/23 01:00:25;;;;;;;1.40;1.30;;;17.50;99.90;;;;;;4999252;28;20470;-69
2021/08/23 01:03:07;;;;;;;1.53;1.43;;;17.50;99.90;;;;;;4999478;28;20510;-69
2021/08/23 01:05:34;;;;;;;1.73;1.63;;;17.50;99.90;;;;;;4985682;28;20832;-69
2021/08/23 01:08:05;;;;;;;1.60;1.50;;;17.50;99.90;;;;;;4987397;28;20969;-69
2021/08/23 01:10:35;;;;;;;1.87;1.77;;;17.40;99.90;;;;;;5098758;27;20472;-69
2021/08/23 01:13:01;;;;;;;3.83;1.30;;;17.40;99.90;;;;;;5038414;28;20979;-69
2021/08/23 01:15:26;;;;;;;1.70;1.60;;;17.40;99.90;;;;;;4993393;28;20456;-70
2021/08/23 01:17:53;;;;;;;2.23;2.03;;;17.40;99.90;;;;;;4983963;28;20472;-69
2021/08/23 01:20:19;;;;;;;2.03;1.83;;;17.50;99.90;;;;;;4966137;28;20305;-70
2021/08/23 01:22:48;;;;;;;3.63;1.63;;;17.40;99.90;;;;;;4987139;28;21045;-70
2021/08/23 01:25:18;;;;;;;2.23;1.80;;;17.40;99.90;;;;;;4984668;28;20278;-70
2021/08/23 01:27:58;;;;;;;1.37;1.30;;;17.50;99.90;;;;;;4987378;28;20993;-68
2021/08/23 01:30:26;;;;;;;2.47;2.07;;;17.40;99.90;;;;;;5000770;28;20460;-69
2021/08/23 01:32:52;;;;;;;2.83;1.97;;;17.40;99.90;;;;;;4987269;28;20516;-69
2021/08/23 01:35:18;;;;;;;1.57;1.47;;;17.40;99.90;;;;;;5000158;28;20449;-70
2021/08/23 01:37:43;;;;;;;1.97;1.77;;;17.40;99.90;;;;;;5004442;28;20608;-69
2021/08/23 01:40:09;;;;;;;2.00;1.80;;;17.40;99.90;;;;;;5001557;28;20217;-70
2021/08/23 01:42:36;;;;;;;1.70;1.60;;;17.40;99.90;;;;;;4986461;28;20217;-69
2021/08/23 01:45:01;;;;;;;3.17;1.43;;;17.40;99.90;;;;;;5004152;28;20456;-69
2021/08/23 01:47:27;;;;;;;1.77;1.53;;;17.40;99.90;;;;;;4987065;28;20835;-70
2021/08/23 01:49:53;;;;;;;1.87;1.77;;;17.40;99.90;;;;;;5003356;28;20221;-69
2021/08/23 01:52:18;;;;;;;1.60;1.50;;;17.40;99.90;;;;;;4983371;28;20260;-70
2021/08/23 01:54:45;;;;;;;1.80;1.70;;;17.40;99.90;;;;;;4983171;28;20222;-69
2021/08/23 01:57:16;;;;;;;1.60;1.50;;;17.40;99.90;;;;;;4997845;28;20230;-69
2021/08/23 01:59:42;;;;;;;1.63;1.50;;;17.40;99.90;;;;;;4999390;28;20464;-69
2021/08/23 02:02:07;;;;;;;3.10;1.50;;;17.40;99.90;;;;;;4996291;28;20466;-70
2021/08/23 02:04:33;;;;;;;2.53;2.33;;;17.40;99.90;;;;;;4986289;28;20245;-70
2021/08/23 02:06:58;;;;;;;1.87;1.67;;;17.40;99.90;;;;;;5002776;28;20225;-70
2021/08/23 02:09:24;;;;;;;2.40;1.77;;;17.30;99.90;;;;;;5000249;28;20623;-69
2021/08/23 02:11:50;;;;;;;2.40;1.70;;;17.30;99.90;;;;;;5002565;28;20233;-68
2021/08/23 02:14:15;;;;;;;1.90;1.80;;;17.40;99.90;;;;;;5000362;28;20221;-70
2021/08/23 02:16:41;;;;;;;2.20;1.90;;;17.30;99.90;;;;;;4994426;28;20225;-69
2021/08/23 02:19:07;;;;;;;2.27;1.90;;;17.30;99.90;;;;;;4985094;28;20225;-70
2021/08/23 02:21:48;;;;;;;2.30;1.60;;;17.30;99.90;;;;;;5001097;28;20217;-70
2021/08/23 02:24:14;;;;;;;1.63;1.53;;;17.30;99.90;;;;;;4974362;28;20469;-70
2021/08/23 02:26:40;;;;;;;2.30;1.67;;;17.30;99.90;;;;;;5006022;28;20552;-70
2021/08/23 02:29:05;;;;;;;1.70;1.60;;;17.30;99.90;;;;;;5003894;28;20241;-70
2021/08/23 02:31:31;;;;;;;2.07;1.87;;;17.30;99.90;;;;;;4989611;28;20814;-70
2021/08/23 02:33:57;;;;;;;2.33;1.63;;;17.30;99.90;;;;;;5005109;28;20221;-69
2021/08/23 02:36:22;;;;;;;1.77;1.67;;;17.30;99.90;;;;;;4987213;28;20928;-70
2021/08/23 02:38:49;;;;;;;1.90;1.77;;;17.30;99.90;;;;;;5005922;28;20236;-69
2021/08/23 02:41:15;;;;;;;1.90;1.60;;;17.30;99.90;;;;;;4987856;28;20221;-70
2021/08/23 02:43:41;;;;;;;3.03;1.77;;;17.20;99.90;;;;;;4994526;28;20527;-69
2021/08/23 02:46:07;;;;;;;1.97;1.77;;;17.30;99.90;;;;;;5005122;28;20586;-70
2021/08/23 02:48:32;;;;;;;4.47;1.63;;;17.30;99.90;;;;;;4989783;28;20217;-70
2021/08/23 02:50:58;;;;;;;2.40;2.20;;;17.20;99.90;;;;;;5006494;28;20729;-70
2021/08/23 02:53:24;;;;;;;2.60;1.80;;;17.30;99.90;;;;;;4987215;28;20209;-70
2021/08/23 02:55:49;;;;;;;3.10;1.90;;;17.30;99.90;;;;;;4989177;28;20239;-69
2021/08/23 02:58:16;;;;;;;4.00;2.00;;;17.30;99.90;;;;;;4987524;28;20221;-69
2021/08/23 03:00:41;;;;;;;1.97;1.77;;;17.20;99.90;;;;;;5006488;28;20221;-70
2021/08/23 03:03:07;;;;;;;2.83;2.00;;;17.20;99.90;;;;;;5003663;28;20452;-70
2021/08/23 03:05:33;;;;;;;2.73;1.50;;;17.20;99.90;;;;;;5025624;28;20675;-70
2021/08/23 03:07:58;;;;;;;2.27;2.07;;;17.30;99.90;;;;;;5027680;28;20237;-70
2021/08/23 03:10:24;;;;;;;1.90;1.70;;;17.20;99.90;;;;;;4984379;28;20286;-70
2021/08/23 03:12:50;;;;;;;2.70;2.20;;;17.30;99.90;;;;;;4989141;28;20316;-69
2021/08/23 03:15:16;;;;;;;2.77;2.17;;;17.20;99.90;;;;;;5002456;28;20564;-70
2021/08/23 03:17:41;;;;;;;2.17;1.90;;;17.20;99.90;;;;;;4996990;28;20221;-69
2021/08/23 03:20:07;;;;;;;3.20;2.13;;;17.20;99.90;;;;;;4987335;28;20221;-69
2021/08/23 03:22:33;;;;;;;1.67;1.57;;;17.20;99.90;;;;;;4985998;28;20221;-70
2021/08/23 03:24:59;;;;;;;2.10;2.00;;;17.20;99.90;;;;;;5001138;28;20253;-69
2021/08/23 03:27:25;;;;;;;1.83;1.70;;;17.20;99.90;;;;;;4999814;28;20218;-70
2021/08/23 03:29:51;;;;;;;2.63;1.90;;;17.20;99.90;;;;;;5004434;28;20608;-70
2021/08/23 03:32:17;;;;;;;1.63;1.53;;;17.20;99.90;;;;;;4990839;28;20316;-69
2021/08/23 03:34:43;;;;;;;6.40;2.60;;;17.20;99.90;;;;;;4985126;28;20473;-69
2021/08/23 03:37:09;;;;;;;1.90;1.60;;;17.20;99.90;;;;;;5037994;27;20463;-69
2021/08/23 03:39:35;;;;;;;2.23;2.03;;;17.20;99.90;;;;;;5062331;28;20231;-69
2021/08/23 03:42:00;;;;;;;1.87;1.77;;;17.20;99.90;;;;;;4988458;28;20225;-69
2021/08/23 03:44:27;;;;;;;3.73;2.13;;;17.20;99.90;;;;;;5000812;28;20225;-69
2021/08/23 03:46:54;;;;;;;2.30;2.10;;;17.20;99.90;;;;;;4988581;28;20469;-70
2021/08/23 03:49:20;;;;;;;2.07;1.80;;;17.20;99.90;;;;;;4986986;28;20233;-70
2021/08/23 03:51:46;;;;;;;2.23;2.03;;;17.20;99.90;;;;;;4985193;28;20465;-70
2021/08/23 03:54:12;;;;;;;2.83;2.37;;;17.20;99.90;;;;;;5001819;28;20480;-71
2021/08/23 03:56:38;;;;;;;2.50;1.90;;;17.20;99.90;;;;;;4985203;28;20881;-70
2021/08/23 03:59:04;;;;;;;2.30;1.90;;;17.20;99.90;;;;;;4999648;28;20233;-70
2021/08/23 04:01:29;;;;;;;2.57;2.37;;;17.20;99.90;;;;;;5001697;28;20532;-70
2021/08/23 04:03:55;;;;;;;1.97;1.87;;;17.20;99.90;;;;;;5003946;28;20297;-70
2021/08/23 04:06:21;;;;;;;2.40;2.20;;;17.30;99.90;;;;;;4986245;28;20264;-70
2021/08/23 04:08:46;;;;;;;2.40;2.20;;;17.20;99.90;;;;;;4983399;28;20641;-69
2021/08/23 04:11:13;;;;;;;2.83;2.23;;;17.30;99.90;;;;;;4999485;28;20334;-70
2021/08/23 04:13:39;;;;;;;1.90;1.80;;;17.20;99.90;;;;;;4984723;28;20230;-69
2021/08/23 04:16:09;;;;;;;2.20;2.10;;;17.20;99.90;;;;;;4998653;28;20465;-70
2021/08/23 04:18:34;;;;;;;2.77;2.13;;;17.20;99.90;;;;;;4984701;28;20846;-69
2021/08/23 04:21:00;;;;;;;2.30;2.10;;;17.20;99.90;;;;;;5004403;28;20456;-70
2021/08/23 04:23:26;;;;;;;2.40;2.10;;;17.20;99.90;;;;;;5002521;28;20221;-70
2021/08/23 04:25:51;;;;;;;2.80;2.10;;;17.20;99.90;;;;;;4987981;28;20242;-69
2021/08/23 04:28:17;;;;;;;2.50;2.00;;;17.20;99.90;;;;;;5001658;28;20810;-70
2021/08/23 04:30:43;;;;;;;6.40;3.00;;;17.20;99.90;;;;;;4987936;28;20228;-69
2021/08/23 04:33:08;;;;;;;2.47;2.20;;;17.20;99.90;;;;;;5002374;28;20225;-70
2021/08/23 04:35:34;;;;;;;2.40;2.20;;;17.20;99.90;;;;;;5002356;28;20285;-69
2021/08/23 04:37:59;;;;;;;2.33;2.13;;;17.20;99.90;;;;;;4999905;28;20661;-69
2021/08/23 04:40:25;;;;;;;2.03;1.83;;;17.20;99.90;;;;;;4982534;28;20221;-70
2021/08/23 04:42:51;;;;;;;4.27;2.20;;;17.20;99.90;;;;;;4990561;28;20227;-70
2021/08/23 04:45:16;;;;;;;3.87;1.93;;;17.20;99.90;;;;;;4984776;28;20225;-69
2021/08/23 04:47:42;;;;;;;2.07;1.87;;;17.20;99.90;;;;;;4987803;28;20330;-69
2021/08/23 04:50:08;;;;;;;2.53;2.20;;;17.20;99.90;;;;;;5003078;28;20225;-70
2021/08/23 04:52:43;;;;;;;2.10;1.90;;;17.20;99.90;;;;;;4986762;28;20762;-69
2021/08/23 04:55:09;;;;;;;2.23;2.03;;;17.20;99.90;;;;;;4995233;28;20464;-70
2021/08/23 04:57:35;;;;;;;2.37;2.17;;;17.20;99.90;;;;;;5002687;28;21030;-69
2021/08/23 05:00:01;;;;;;;2.60;2.10;;;17.20;99.90;;;;;;4987782;28;20452;-69
2021/08/23 05:02:26;;;;;;;1.90;1.70;;;17.20;99.90;;;;;;4984229;28;20854;-70
2021/08/23 05:04:52;;;;;;;2.07;1.87;;;17.20;99.90;;;;;;4986996;28;20225;-69
2021/08/23 05:07:18;;;;;;;2.60;2.40;;;17.20;99.90;;;;;;5001148;28;20247;-69
2021/08/23 05:09:43;;;;;;;2.20;2.00;;;17.20;99.90;;;;;;4987468;28;20608;-70
2021/08/23 05:12:09;;;;;;;2.20;2.00;;;17.20;99.90;;;;;;5000837;28;20233;-69
2021/08/23 05:14:35;;;;;;;4.13;2.20;;;17.20;99.90;;;;;;5003127;28;20220;-69
2021/08/23 05:17:00;;;;;;;2.53;2.33;;;17.20;99.90;;;;;;4996133;28;20702;-69
2021/08/23 05:19:26;;;;;;;2.93;2.13;;;17.20;99.90;;;;;;4985409;28;20225;-70
2021/08/23 05:21:53;;;;;;;3.10;2.10;;;17.20;99.90;;;;;;4987453;28;20226;-69
2021/08/23 05:24:19;;;;;;;3.30;2.07;;;17.20;99.90;;;;;;5000727;28;20558;-69
2021/08/23 05:26:44;;;;;;;2.50;2.27;;;17.20;99.90;;;;;;4986718;28;20698;-69
2021/08/23 05:29:10;;;;;;;2.90;2.40;;;17.10;99.90;;;;;;4995870;28;20269;-69
2021/08/23 05:31:36;;;;;;;3.60;2.20;;;17.20;99.90;;;;;;4985866;28;20237;-69
2021/08/23 05:34:02;;;;;;;3.00;2.30;;;17.10;99.90;;;;;;4986942;28;20221;-69
2021/08/23 05:36:27;;;;;;;2.53;2.20;;;17.20;99.90;;;;;;4984895;28;21008;-70
2021/08/23 05:38:53;;;;;;;2.53;2.33;;;17.20;99.90;;;;;;4981574;28;20229;-69
2021/08/23 05:41:19;;;;;;;3.23;2.10;;;17.20;99.90;;;;;;4982122;28;20232;-69
2021/08/23 05:43:44;;;;;;;2.40;2.10;;;17.20;99.90;;;;;;4983606;28;20229;-70
2021/08/23 05:46:11;;;;;;;2.20;2.00;;;17.20;99.90;;;;;;4991418;28;20230;-70
2021/08/23 05:48:36;;;;;;;2.67;2.43;;;17.20;99.90;;;;;;5028311;28;20217;-70
2021/08/23 05:51:02;;;;;;;2.90;2.70;;;17.20;99.90;;;;;;4982064;28;20462;-69
2021/08/23 05:53:28;;;;;;;3.23;2.73;;;17.20;99.90;;;;;;4980860;28;20252;-70
2021/08/23 05:55:54;;;;;;;3.80;2.23;;;17.20;99.90;;;;;;5003145;28;20284;-69
2021/08/23 05:58:20;;;;;;;3.03;2.53;;;17.20;99.90;;;;;;4986987;28;21012;-70
2021/08/23 06:00:45;;;;;;;3.13;2.43;;;17.20;99.90;;;;;;4974356;28;20302;-70
2021/08/23 06:03:11;;;;;;;3.40;2.40;;;17.30;99.90;;;;;;4984533;28;20222;-70
2021/08/23 06:05:36;;;;;;;3.57;2.63;;;17.30;99.90;;;;;;4985112;28;20228;-70
2021/08/23 06:08:02;;;;;;;6.33;2.57;;;17.30;99.90;;;;;;5000092;28;20229;-69
2021/08/23 06:10:28;;;;;;;2.90;2.10;;;17.30;99.90;;;;;;4982428;28;20283;-70
2021/08/23 06:12:54;;;;;;;2.50;2.30;;;17.40;99.90;;;;;;5061279;28;20499;-69
2021/08/23 06:15:20;;;;;;;2.63;2.40;;;17.40;99.90;;;;;;5010241;28;20221;-69
2021/08/23 06:17:46;;;;;;;4.47;3.00;;;17.40;99.90;;;;;;5069735;27;20222;-69
2021/08/23 06:20:12;;;;;;;3.30;2.50;;;17.50;99.90;;;;;;5034240;28;20465;-72
2021/08/23 06:22:37;;;;;;;4.73;2.70;;;17.50;99.90;;;;;;5026924;28;20217;-69
2021/08/23 06:25:06;;;;;;;2.33;2.10;;;17.50;99.90;;;;;;5005201;28;20700;-71
2021/08/23 06:27:31;;;;;;;2.90;2.30;;;17.50;99.90;;;;;;5030276;28;20694;-70
2021/08/23 06:29:57;;;;;;;4.03;3.00;;;17.60;99.90;;;;;;4992197;28;20509;-70
2021/08/23 06:32:23;;;;;;;3.50;2.93;;;17.60;99.90;;;;;;4983855;28;20718;-69
2021/08/23 06:34:48;;;;;;;3.00;2.63;;;17.60;99.90;;;;;;4985893;28;20441;-70
2021/08/23 06:37:15;;;;;;;4.80;2.57;;;17.60;99.90;;;;;;4968621;28;20699;-69
2021/08/23 06:39:40;;;;;;;5.60;2.80;;;17.60;99.90;;;;;;4998590;28;20221;-70
2021/08/23 06:42:06;;;;;;;3.80;2.90;;;17.60;99.90;;;;;;4979088;28;21063;-70
2021/08/23 06:44:32;;;;;;;3.30;3.00;;;17.70;99.90;;;;;;4968458;28;20219;-69
2021/08/23 06:46:57;;;;;;;4.40;2.63;;;17.70;99.90;;;;;;4993224;28;20229;-70
2021/08/23 06:49:23;;;;;;;3.50;2.80;;;17.70;99.90;;;;;;5006608;28;20222;-70
2021/08/23 06:51:48;;;;;;;3.83;3.00;;;17.80;99.90;;;;;;4984248;28;20229;-69
2021/08/23 06:54:14;;;;;;;3.20;2.53;;;17.80;99.90;;;;;;5003739;28;20221;-70
2021/08/23 06:56:42;;;;;;;3.43;3.13;;;17.90;99.90;;;;;;4987349;28;20297;-70
2021/08/23 06:59:08;;;;;;;3.00;2.70;;;17.90;99.90;;;;;;5002817;28;20213;-70
2021/08/23 07:01:34;;;;;;;2.63;2.43;;;17.90;99.90;;;;;;5006966;28;20540;-70
2021/08/23 07:04:01;;;;;;;2.37;2.17;;;18.00;99.90;;;;;;5007307;28;20456;-70
2021/08/23 07:06:26;;;;;;;2.50;2.30;;;18.00;99.90;;;;;;5004503;28;20217;-69
2021/08/23 07:08:52;;;;;;;3.60;2.30;;;18.10;99.90;;;;;;5006797;28;20832;-70
2021/08/23 07:11:18;;;;;;;2.87;2.67;;;18.10;99.90;;;;;;4972680;28;20699;-70
2021/08/23 07:13:44;;;;;;;3.00;2.80;;;18.10;99.90;;;;;;4988673;28;20233;-70
2021/08/23 07:16:10;;;;;;;2.43;2.23;;;18.20;99.90;;;;;;4986285;28;20449;-71
2021/08/23 07:18:36;;;;;;;2.70;2.50;;;18.20;99.90;;;;;;5056247;28;20635;-70
2021/08/23 07:21:03;;;;;;;4.03;2.70;;;18.20;99.90;;;;;;5008283;28;20229;-70
2021/08/23 07:23:29;;;;;;;2.60;2.40;;;18.30;99.90;;;;;;5047116;28;20518;-70
2021/08/23 07:25:55;;;;;;;3.17;2.20;;;18.40;99.90;;;;;;5003625;28;20460;-70
2021/08/23 07:28:20;;;;;;;2.60;2.17;;;18.40;99.90;;;;;;5005457;28;20229;-70
2021/08/23 07:30:46;;;;;;;3.50;2.60;;;18.40;99.90;;;;;;4985804;28;20470;-70
2021/08/23 07:33:12;;;;;;;2.60;2.40;;;18.50;99.90;;;;;;4983756;28;20237;-69
2021/08/23 07:35:38;;;;;;;3.20;2.43;;;18.60;99.90;;;;;;4986351;28;20288;-70
2021/08/23 07:38:04;;;;;;;2.87;2.57;;;18.70;99.90;;;;;;5004336;28;20474;-70
2021/08/23 07:40:30;;;;;;;2.50;2.20;;;18.70;99.90;;;;;;5004915;28;20709;-70
2021/08/23 07:42:56;;;;;;;3.10;2.80;;;18.70;99.90;;;;;;4984921;28;20465;-70
2021/08/23 07:45:22;;;;;;;2.27;2.17;;;18.80;99.90;;;;;;4999419;28;20810;-70
2021/08/23 07:47:48;;;;;;;2.63;2.40;;;18.80;99.90;;;;;;5004958;28;20467;-70
2021/08/23 07:50:15;;;;;;;2.90;2.70;;;18.80;99.90;;;;;;5003237;28;20228;-70
2021/08/23 07:52:41;;;;;;;3.17;2.87;;;18.90;99.90;;;;;;5005466;28;20714;-70
2021/08/23 07:55:08;;;;;;;2.60;2.40;;;18.90;99.90;;;;;;4988773;28;20489;-70
2021/08/23 07:57:40;;;;;;;2.67;2.43;;;18.90;99.90;;;;;;4971941;28;20461;-70
2021/08/23 08:00:06;;;;;;;3.27;3.00;;;19.00;99.90;;;;;;4984086;28;20481;-70
2021/08/23 08:02:37;;;;;;;2.97;2.73;;;19.00;99.90;;;;;;5003850;28;20586;-70
2021/08/23 08:05:04;;;;;;;2.70;2.50;;;19.00;99.90;;;;;;5003136;28;21077;-70
2021/08/23 08:07:29;;;;;;;3.20;3.00;;;19.10;99.90;;;;;;4987023;28;20280;-70
2021/08/23 08:09:55;;;;;;;2.90;2.70;;;19.10;99.90;;;;;;4984613;28;20457;-70
2021/08/23 08:12:21;;;;;;;2.77;2.57;;;19.20;99.90;;;;;;5003063;28;20247;-71
2021/08/23 08:14:47;;;;;;;3.23;2.70;;;19.20;99.90;;;;;;4982831;28;20230;-71
2021/08/23 08:17:13;;;;;;;3.10;2.80;;;19.20;99.90;;;;;;5005918;28;20631;-70
2021/08/23 08:19:41;;;;;;;4.07;3.23;;;19.20;99.90;;;;;;4987854;28;20536;-70
2021/08/23 08:22:07;;;;;;;3.07;2.77;;;19.30;99.90;;;;;;5004456;28;20221;-70
2021/08/23 08:24:33;;;;;;;2.90;2.70;;;19.40;99.90;;;;;;4987805;28;20464;-70
2021/08/23 08:26:58;;;;;;;3.20;2.90;;;19.50;99.90;;;;;;5006213;28;20233;-70
2021/08/23 08:29:24;;;;;;;3.60;2.87;;;19.60;99.90;;;;;;5005704;28;20214;-70
2021/08/23 08:31:50;;;;;;;3.13;2.93;;;19.60;99.90;;;;;;4986378;28;20230;-70
2021/08/23 08:34:16;;;;;;;3.60;3.30;;;19.70;99.90;;;;;;4988627;28;20606;-70
2021/08/23 08:36:42;;;;;;;4.93;3.10;;;19.80;99.90;;;;;;5007592;28;20293;-69
2021/08/23 08:39:09;;;;;;;3.20;3.00;;;19.80;99.90;;;;;;4977686;28;20233;-71
2021/08/23 08:41:34;;;;;;;3.80;3.17;;;19.80;99.90;;;;;;5003598;28;20543;-70
2021/08/23 08:44:00;;;;;;;3.60;3.40;;;19.90;99.90;;;;;;5003799;28;20302;-70
2021/08/23 08:46:26;;;;;;;3.07;2.87;;;19.90;99.90;;;;;;5003824;28;20311;-69
2021/08/23 08:48:54;;;;;;;2.80;2.60;;;20.00;99.90;;;;;;5003319;28;20535;-70
2021/08/23 08:51:21;;;;;;;3.67;3.37;;;20.10;99.90;;;;;;4986857;28;20229;-70
2021/08/23 08:53:47;;;;;;;3.00;2.80;;;20.20;99.90;;;;;;4983999;28;20489;-70
2021/08/23 08:56:13;;;;;;;5.63;3.07;;;20.20;99.90;;;;;;5002257;28;20549;-71
2021/08/23 08:58:38;;;;;;;3.13;2.83;;;20.30;99.90;;;;;;5004532;28;20612;-70
2021/08/23 09:01:06;;;;;;;3.23;2.93;;;20.30;99.90;;;;;;5046422;28;20231;-70
2021/08/23 09:03:32;;;;;;;2.90;2.70;;;20.30;99.90;;;;;;4986698;28;20267;-69
2021/08/23 09:06:06;;;;;;;2.67;2.50;;;20.40;99.90;;;;;;5004594;28;20488;-70
2021/08/23 09:08:33;;;;;;;2.50;2.30;;;20.50;99.90;;;;;;4995760;28;20221;-69
2021/08/23 09:11:13;;;;;;;3.07;2.77;;;20.50;99.90;;;;;;4990020;28;20643;-70
2021/08/23 09:13:41;;;;;;;2.40;2.30;;;20.50;99.90;;;;;;5005045;28;20505;-69
2021/08/23 09:16:07;;;;;;;2.60;2.40;;;20.70;99.90;;;;;;4998354;28;20814;-71
2021/08/23 09:18:33;;;;;;;2.47;2.27;;;20.70;99.90;;;;;;5005996;28;20464;-70
2021/08/23 09:21:04;;;;;;;2.47;2.27;;;20.80;99.90;;;;;;5029824;28;20447;-70
2021/08/23 09:23:47;;;;;;;2.40;2.20;;;20.90;99.90;;;;;;4973717;28;20299;-70
2021/08/23 09:26:16;;;;;;;2.53;2.30;;;21.00;99.90;;;;;;5046069;28;20612;-71
2021/08/23 09:28:56;;;;;;;2.70;2.50;;;21.10;99.90;;;;;;5091440;28;20828;-69
2021/08/23 09:31:30;;;;;;;2.77;2.50;;;21.00;99.90;;;;;;5108175;28;20467;-71
2021/08/23 09:34:11;;;;;;;4.53;2.50;;;21.00;99.90;;;;;;5114535;27;20438;-69
2021/08/23 09:36:37;;;;;;;2.60;2.40;;;21.00;99.90;;;;;;5092777;28;20445;-69
2021/08/23 09:39:08;;;;;;;2.80;2.60;;;21.00;99.90;;;;;;5104541;28;20452;-71
2021/08/23 09:41:40;;;;;;;2.80;2.40;;;21.10;99.90;;;;;;5087870;28;20454;-70
2021/08/23 09:44:07;;;;;;;3.47;3.10;;;21.10;99.90;;;;;;5106320;28;20447;-70
2021/08/23 09:46:34;;;;;;;2.50;2.30;;;21.10;99.90;;;;;;5041807;28;20866;-71
2021/08/23 09:49:05;;;;;;;2.73;2.47;;;21.10;99.90;;;;;;4991490;28;20461;-70
2021/08/23 09:51:42;;;;;;;3.00;2.80;;;21.10;99.90;;;;;;4985711;28;20502;-70
2021/08/23 09:54:10;;;;;;;2.93;2.50;;;21.10;99.90;;;;;;5004175;28;20476;-69
2021/08/23 09:56:44;;;;;;;4.43;3.33;;;21.20;99.90;;;;;;4986164;28;20502;-70
2021/08/23 09:59:14;;;;;;;3.50;3.20;;;21.20;99.90;;;;;;5000245;28;20568;-70
2021/08/23 10:01:40;;;;;;;3.30;2.83;;;21.30;99.90;;;;;;5031494;28;20559;-71
2021/08/23 10:04:06;;;;;;;4.93;3.00;;;21.40;99.90;;;;;;5067239;28;20528;-69
2021/08/23 10:06:37;;;;;;;5.03;2.90;;;21.50;99.90;;;;;;5105075;28;21076;-70
2021/08/23 10:09:05;;;;;;;3.10;2.90;;;21.60;99.90;;;;;;5097386;28;20465;-70
2021/08/23 10:11:35;;;;;;;3.20;2.90;;;21.70;99.90;;;;;;4985154;28;20488;-69
2021/08/23 10:14:03;;;;;;;2.83;2.63;;;21.80;99.90;;;;;;4972249;28;20913;-70
2021/08/23 10:16:30;;;;;;;3.10;2.80;;;21.90;99.90;;;;;;4963103;28;20466;-71
2021/08/23 10:18:56;;;;;;;3.20;3.00;;;22.00;99.90;;;;;;4979024;28;20995;-70
2021/08/23 10:21:23;;;;;;;2.97;2.67;;;22.00;99.90;;;;;;4974676;28;20513;-70
2021/08/23 10:23:50;;;;;;;3.00;2.80;;;22.10;99.90;;;;;;4985948;28;20260;-70
2021/08/23 10:26:16;;;;;;;3.57;3.10;;;22.10;99.90;;;;;;5000475;28;20448;-70
2021/08/23 10:28:47;;;;;;;3.83;3.53;;;22.20;99.90;;;;;;4996253;28;20497;-70
2021/08/23 10:31:15;;;;;;;3.37;3.13;;;22.20;99.90;;;;;;4985135;28;20475;-70
2021/08/23 10:33:42;;;;;;;3.63;3.33;;;22.10;99.90;;;;;;5002064;28;20605;-71
2021/08/23 10:36:12;;;;;;;5.07;3.60;;;22.20;99.90;;;;;;5003168;28;20505;-70
2021/08/23 10:38:39;;;;;;;3.10;2.90;;;22.10;99.90;;;;;;5002593;28;20462;-70
2021/08/23 10:41:08;;;;;;;3.23;2.93;;;22.20;99.90;;;;;;4987217;28;20466;-70
2021/08/23 10:43:49;;;;;;;3.60;3.30;;;22.20;99.90;;;;;;4989878;28;20462;-70
2021/08/23 10:46:34;;;;;;;3.33;3.13;;;22.20;99.90;;;;;;4989528;28;20503;-70
2021/08/23 10:49:12;;;;;;;2.90;2.60;;;22.30;99.90;;;;;;5003365;28;20463;-70
2021/08/23 10:51:40;;;;;;;3.67;3.07;;;22.30;99.90;;;;;;5012190;28;20582;-70
2021/08/23 10:54:25;;;;;;;2.87;2.63;;;22.30;99.90;;;;;;5000425;28;20885;-70
2021/08/23 10:56:59;;;;;;;3.30;3.00;;;22.30;99.90;;;;;;4981190;28;20461;-70
2021/08/23 10:59:36;;;;;;;3.00;2.80;;;22.40;99.90;;;;;;4981324;28;20452;-69
2021/08/23 11:02:02;;;;;;;3.80;3.40;;;22.40;99.90;;;;;;5005688;28;20471;-70
2021/08/23 11:04:33;;;;;;;3.10;2.90;;;22.40;99.90;;;;;;4987749;28;20456;-70
2021/08/23 11:07:01;;;;;;;3.60;3.10;;;22.50;99.90;;;;;;4997431;28;20472;-70
2021/08/23 11:09:31;;;;;;;3.20;3.00;;;22.70;99.90;;;;;;5000617;28;20547;-70
2021/08/23 11:12:16;;;;;;;3.50;3.20;;;22.80;99.90;;;;;;5000524;28;20550;-70
2021/08/23 11:14:50;;;;;;;3.20;3.00;;;22.90;99.90;;;;;;4983120;28;20469;-70
2021/08/23 11:17:27;;;;;;;3.27;3.00;;;23.00;99.90;;;;;;4998911;28;20838;-70
2021/08/23 11:19:54;;;;;;;2.87;2.67;;;23.00;99.90;;;;;;5002063;28;20478;-69
2021/08/23 11:22:19;;;;;;;3.53;3.23;;;23.00;99.90;;;;;;4997663;28;20472;-70
2021/08/23 11:24:45;;;;;;;3.50;3.20;;;23.00;99.90;;;;;;5001505;28;20476;-70
2021/08/23 11:27:14;;;;;;;3.33;2.97;;;23.00;99.90;;;;;;4991344;28;20311;-69
2021/08/23 11:29:47;;;;;;;3.07;2.87;;;23.00;99.90;;;;;;4982219;28;20698;-70
2021/08/23 11:32:13;;;;;;;3.77;3.47;;;23.00;99.90;;;;;;4997172;28;20475;-71
2021/08/23 11:34:39;;;;;;;3.53;3.23;;;23.10;99.90;;;;;;4998784;28;20464;-70
2021/08/23 11:37:08;;;;;;;4.20;3.90;;;23.00;99.90;;;;;;4996492;28;20240;-70
2021/08/23 11:39:35;;;;;;;3.53;3.23;;;22.90;99.90;;;;;;4998392;28;20766;-70
2021/08/23 11:42:03;;;;;;;4.20;3.80;;;23.00;99.90;;;;;;5001800;28;20455;-70
2021/08/23 11:44:29;;;;;;;4.00;3.70;;;23.00;99.90;;;;;;5001202;28;20482;-70
2021/08/23 11:46:57;;;;;;;3.87;3.57;;;23.10;99.90;;;;;;4983654;28;20849;-69
2021/08/23 11:49:31;;;;;;;5.40;4.40;;;23.10;99.90;;;;;;4983619;28;20226;-70
2021/08/23 11:51:57;;;;;;;4.50;3.70;;;23.10;99.90;;;;;;4985296;28;20927;-70
2021/08/23 11:54:23;;;;;;;4.27;3.90;;;23.10;99.90;;;;;;4990301;28;20474;-69
2021/08/23 11:56:49;;;;;;;4.20;3.90;;;23.10;99.90;;;;;;4988462;28;20471;-70
2021/08/23 11:59:15;;;;;;;3.87;3.57;;;23.00;99.90;;;;;;4998699;28;20297;-69
2021/08/23 12:01:41;;;;;;;3.50;3.20;;;22.90;99.90;;;;;;4981122;28;20224;-70
2021/08/23 12:04:06;;;;;;;4.60;3.73;;;23.00;99.90;;;;;;4992315;28;20229;-70
2021/08/23 12:06:33;;;;;;;6.03;4.17;;;22.90;99.90;;;;;;5000743;28;20224;-70
2021/08/23 12:09:00;;;;;;;4.10;3.70;;;22.90;99.90;;;;;;4985631;28;20705;-70
2021/08/23 12:11:25;;;;;;;4.57;4.17;;;22.90;99.90;;;;;;4981598;28;20467;-70
2021/08/23 12:13:51;;;;;;;4.20;3.90;;;23.00;99.90;;;;;;4981734;28;20467;-70
2021/08/23 12:16:34;;;;;;;4.30;4.00;;;23.00;99.90;;;;;;4998300;28;20229;-71
2021/08/23 12:19:08;;;;;;;4.40;4.00;;;23.00;99.90;;;;;;4985307;28;21056;-70
2021/08/23 12:21:34;;;;;;;6.00;3.97;;;23.00;99.90;;;;;;4977362;28;20481;-70
2021/08/23 12:24:05;;;;;;;3.90;3.60;;;23.00;99.90;;;;;;4984800;28;20476;-70
2021/08/23 12:26:38;;;;;;;3.83;3.57;;;23.10;99.90;;;;;;4981649;28;20234;-70
2021/08/23 12:29:28;;;;;;;4.10;3.80;;;23.10;99.90;;;;;;4979773;28;20461;-70
2021/08/23 12:32:03;;;;;;;4.53;4.00;;;23.10;99.90;;;;;;4996086;28;20468;-69
2021/08/23 12:34:36;;;;;;;4.90;4.50;;;23.00;99.90;;;;;;4964996;28;20459;-70
2021/08/23 12:37:03;;;;;;;5.13;4.73;;;23.00;99.90;;;;;;4981605;28;20473;-70
2021/08/23 12:39:29;;;;;;;4.73;4.20;;;22.90;99.90;;;;;;4990658;28;20539;-70
2021/08/23 12:41:58;;;;;;;4.70;4.30;;;22.90;99.90;;;;;;4997394;28;20839;-70
2021/08/23 12:44:24;;;;;;;4.37;3.97;;;22.90;99.90;;;;;;4981881;28;20460;-70
2021/08/23 12:46:50;;;;;;;4.00;3.70;;;22.90;99.90;;;;;;4983572;28;20467;-69
2021/08/23 12:49:17;;;;;;;4.30;3.90;;;22.90;99.90;;;;;;4996158;28;20702;-70